createdAt,value
2023-03-17T00:00:25.142Z,15.27
2023-03-17T00:00:57.367Z,14.95
2023-03-17T00:01:29.976Z,15.63
2023-03-17T00:02:02.225Z,14.43
2023-03-17T00:02:34.633Z,14.10
2023-03-17T00:03:07.502Z,14.55
2023-03-17T00:03:40.994Z,14.68
2023-03-17T00:04:13.423Z,15.43
2023-03-17T00:04:45.698Z,15.15
2023-03-17T00:05:23.310Z,15.30
2023-03-17T00:05:56.761Z,15.50
2023-03-17T00:06:30.230Z,15.40
2023-03-17T00:07:02.784Z,15.40
2023-03-17T00:07:35.044Z,16.02
2023-03-17T00:08:20.150Z,15.43
2023-03-17T00:08:52.565Z,15.23
2023-03-17T00:09:25.140Z,16.15
2023-03-17T00:09:57.688Z,15.85
2023-03-17T00:10:30.165Z,15.25
2023-03-17T00:11:02.818Z,14.82
2023-03-17T00:11:35.509Z,15.48
2023-03-17T00:12:11.679Z,15.85
2023-03-17T00:12:44.994Z,15.13
2023-03-17T00:13:17.837Z,14.45
2023-03-17T00:13:50.228Z,15.73
2023-03-17T00:14:23.244Z,15.25
2023-03-17T00:14:55.570Z,14.85
2023-03-17T00:15:28.007Z,14.82
2023-03-17T00:16:02.388Z,15.05
2023-03-17T00:16:36.701Z,15.57
2023-03-17T00:17:10.031Z,14.65
2023-03-17T00:17:42.632Z,14.57
2023-03-17T00:18:16.609Z,15.02
2023-03-17T00:18:49.747Z,15.05
2023-03-17T00:19:31.300Z,14.50
2023-03-17T00:20:04.424Z,14.02
2023-03-17T00:20:36.663Z,15.10
2023-03-17T00:21:13.248Z,15.52
2023-03-17T00:21:47.219Z,15.82
2023-03-17T00:22:20.081Z,15.18
2023-03-17T00:22:52.430Z,15.13
2023-03-17T00:23:25.219Z,16.60
2023-03-17T00:23:58.099Z,17.20
2023-03-17T00:24:30.630Z,16.83
2023-03-17T00:25:03.051Z,16.37
2023-03-17T00:25:35.448Z,17.02
2023-03-17T00:26:07.942Z,16.55
2023-03-17T00:26:41.744Z,17.13
2023-03-17T00:27:14.769Z,16.42
2023-03-17T00:27:47.258Z,15.40
2023-03-17T00:28:21.232Z,16.67
2023-03-17T00:28:55.027Z,15.25
2023-03-17T00:29:28.259Z,16.75
2023-03-17T00:30:00.771Z,17.25
2023-03-17T00:30:33.311Z,16.47
2023-03-17T00:31:15.851Z,16.17
2023-03-17T00:31:48.405Z,15.88
2023-03-17T00:32:21.770Z,16.25
2023-03-17T00:32:58.397Z,16.27
2023-03-17T00:33:33.395Z,15.68
2023-03-17T00:34:06.157Z,15.75
2023-03-17T00:34:38.529Z,16.95
2023-03-17T00:35:18.017Z,15.77
2023-03-17T00:35:50.805Z,14.40
2023-03-17T00:36:24.608Z,16.15
2023-03-17T00:36:56.936Z,15.45
2023-03-17T00:37:29.557Z,15.35
2023-03-17T00:38:02.059Z,15.57
2023-03-17T00:38:36.322Z,16.52
2023-03-17T00:39:45.854Z,15.85
2023-03-17T00:40:36.994Z,15.55
2023-03-17T00:41:12.818Z,15.50
2023-03-17T00:42:17.742Z,14.70
2023-03-17T00:42:53.395Z,16.52
2023-03-17T00:43:25.759Z,16.15
2023-03-17T00:43:58.835Z,16.13
2023-03-17T00:44:31.576Z,15.88
2023-03-17T00:45:04.129Z,15.98
2023-03-17T00:45:36.633Z,16.27
2023-03-17T00:46:22.302Z,16.45
2023-03-17T00:46:54.939Z,16.88
2023-03-17T00:47:27.806Z,16.85
2023-03-17T00:48:00.861Z,16.27
2023-03-17T00:48:33.323Z,16.27
2023-03-17T00:49:20.087Z,17.35
2023-03-17T00:49:52.390Z,16.67
2023-03-17T00:50:26.549Z,17.02
2023-03-17T00:51:00.460Z,15.85
2023-03-17T00:51:34.416Z,16.13
2023-03-17T00:52:09.731Z,16.90
2023-03-17T00:52:42.556Z,16.77
2023-03-17T00:53:18.592Z,16.30
2023-03-17T00:53:51.308Z,16.90
2023-03-17T00:54:24.090Z,16.58
2023-03-17T00:54:56.480Z,16.67
2023-03-17T00:55:29.021Z,16.33
2023-03-17T00:56:01.328Z,15.85
2023-03-17T00:56:33.585Z,16.17
2023-03-17T00:57:05.920Z,15.18
2023-03-17T00:57:40.170Z,16.90
2023-03-17T00:58:15.190Z,16.38
2023-03-17T00:58:48.376Z,15.40
2023-03-17T00:59:26.652Z,15.10
2023-03-17T00:59:59.186Z,14.68
2023-03-17T01:00:33.283Z,14.75
2023-03-17T01:01:05.932Z,14.65
2023-03-17T01:01:38.468Z,15.88
2023-03-17T01:02:14.134Z,15.70
2023-03-17T01:02:47.015Z,14.85
2023-03-17T01:03:19.485Z,15.40
2023-03-17T01:03:52.217Z,14.95
2023-03-17T01:04:24.634Z,14.45
2023-03-17T01:05:05.754Z,15.38
2023-03-17T01:05:40.148Z,13.93
2023-03-17T01:06:14.972Z,14.07
2023-03-17T01:06:48.401Z,14.82
2023-03-17T01:07:21.229Z,13.80
2023-03-17T01:07:55.196Z,15.07
2023-03-17T01:08:28.910Z,14.63
2023-03-17T01:09:01.941Z,14.13
2023-03-17T01:09:35.288Z,14.55
2023-03-17T01:10:12.868Z,14.25
2023-03-17T01:10:45.584Z,13.65
2023-03-17T01:11:21.699Z,13.93
2023-03-17T01:11:55.318Z,13.85
2023-03-17T01:12:27.919Z,14.52
2023-03-17T01:13:00.745Z,14.45
2023-03-17T01:13:33.186Z,13.80
2023-03-17T01:14:05.973Z,14.23
2023-03-17T01:14:38.423Z,13.40
2023-03-17T01:15:10.816Z,14.57
2023-03-17T01:15:45.157Z,14.32
2023-03-17T01:16:17.507Z,13.95
2023-03-17T01:16:49.733Z,14.05
2023-03-17T01:17:22.209Z,14.32
2023-03-17T01:17:55.925Z,14.82
2023-03-17T01:18:28.180Z,14.70
2023-03-17T01:19:01.203Z,14.98
2023-03-17T01:19:33.452Z,14.25
2023-03-17T01:20:06.860Z,14.27
2023-03-17T01:20:40.044Z,13.95
2023-03-17T01:21:13.264Z,14.10
2023-03-17T01:21:46.727Z,14.30
2023-03-17T01:22:19.232Z,14.68
2023-03-17T01:22:51.769Z,14.85
2023-03-17T01:23:24.592Z,14.35
2023-03-17T01:23:58.473Z,13.48
2023-03-17T01:24:31.098Z,14.88
2023-03-17T01:25:05.221Z,13.82
2023-03-17T01:25:38.349Z,14.68
2023-03-17T01:26:10.622Z,14.63
2023-03-17T01:26:42.895Z,13.80
2023-03-17T01:27:15.693Z,14.80
2023-03-17T01:27:49.150Z,15.18
2023-03-17T01:28:21.389Z,15.05
2023-03-17T01:28:54.075Z,15.02
2023-03-17T01:29:27.224Z,14.60
2023-03-17T01:29:59.415Z,14.60
2023-03-17T01:30:37.663Z,14.90
2023-03-17T01:31:10.531Z,15.45
2023-03-17T01:31:43.122Z,15.15
2023-03-17T01:32:15.508Z,14.65
2023-03-17T01:32:48.058Z,15.05
2023-03-17T01:33:21.066Z,14.95
2023-03-17T01:33:54.368Z,14.98
2023-03-17T01:34:28.157Z,14.48
2023-03-17T01:35:00.758Z,14.40
2023-03-17T01:35:33.181Z,14.20
2023-03-17T01:36:06.792Z,14.85
2023-03-17T01:36:39.315Z,13.77
2023-03-17T01:37:12.063Z,14.70
2023-03-17T01:37:45.335Z,14.38
2023-03-17T01:38:17.704Z,14.57
2023-03-17T01:38:51.173Z,14.50
2023-03-17T01:39:23.633Z,14.30
2023-03-17T01:39:57.261Z,14.52
2023-03-17T01:40:32.521Z,14.07
2023-03-17T01:41:05.218Z,14.32
2023-03-17T01:41:37.812Z,13.57
2023-03-17T01:42:11.013Z,13.20
2023-03-17T01:42:45.019Z,13.73
2023-03-17T01:43:17.816Z,13.55
2023-03-17T01:43:51.849Z,14.68
2023-03-17T01:44:25.937Z,13.88
2023-03-17T01:45:00.097Z,14.20
2023-03-17T01:45:51.876Z,14.88
2023-03-17T01:46:34.508Z,13.60
2023-03-17T01:47:07.365Z,13.95
2023-03-17T01:47:40.107Z,13.68
2023-03-17T01:48:13.837Z,13.60
2023-03-17T01:48:46.644Z,15.23
2023-03-17T01:49:19.495Z,14.32
2023-03-17T01:49:53.129Z,14.17
2023-03-17T01:50:25.847Z,14.00
2023-03-17T01:50:59.037Z,15.18
2023-03-17T01:51:51.622Z,15.35
2023-03-17T01:52:24.208Z,13.80
2023-03-17T01:52:57.014Z,14.95
2023-03-17T01:53:29.436Z,14.57
2023-03-17T01:54:03.798Z,14.32
2023-03-17T01:54:42.376Z,14.55
2023-03-17T01:55:16.274Z,13.45
2023-03-17T01:55:50.578Z,14.40
2023-03-17T01:56:23.798Z,14.30
2023-03-17T01:56:59.124Z,14.65
2023-03-17T01:57:37.419Z,14.95
2023-03-17T01:58:10.103Z,14.13
2023-03-17T01:58:43.488Z,13.07
2023-03-17T01:59:19.499Z,14.13
2023-03-17T01:59:56.273Z,13.98
2023-03-17T02:00:28.936Z,14.23
2023-03-17T02:01:01.815Z,13.88
2023-03-17T02:01:37.906Z,14.77
2023-03-17T02:02:12.920Z,14.80
2023-03-17T02:02:50.539Z,14.65
2023-03-17T02:03:23.582Z,15.10
2023-03-17T02:03:56.621Z,14.18
2023-03-17T02:04:29.248Z,14.63
2023-03-17T02:05:03.211Z,15.02
2023-03-17T02:05:36.182Z,15.02
2023-03-17T02:06:09.891Z,14.88
2023-03-17T02:06:56.809Z,13.88
2023-03-17T02:07:30.276Z,13.43
2023-03-17T02:08:03.483Z,13.85
2023-03-17T02:08:36.265Z,16.02
2023-03-17T02:09:08.858Z,14.95
2023-03-17T02:09:41.560Z,15.00
2023-03-17T02:10:16.037Z,14.98
2023-03-17T02:10:49.748Z,14.68
2023-03-17T02:11:22.803Z,15.00
2023-03-17T02:11:56.915Z,13.93
2023-03-17T02:12:30.940Z,14.57
2023-03-17T02:13:05.933Z,15.23
2023-03-17T02:13:39.116Z,14.63
2023-03-17T02:14:11.569Z,14.77
2023-03-17T02:14:44.559Z,15.52
2023-03-17T02:15:19.085Z,14.43
2023-03-17T02:15:52.408Z,15.27
2023-03-17T02:16:30.588Z,14.20
2023-03-17T02:17:03.241Z,15.45
2023-03-17T02:17:35.608Z,15.40
2023-03-17T02:18:08.850Z,15.25
2023-03-17T02:18:42.426Z,15.43
2023-03-17T02:19:14.922Z,15.20
2023-03-17T02:19:47.669Z,16.10
2023-03-17T02:20:20.068Z,15.93
2023-03-17T02:20:53.815Z,15.25
2023-03-17T02:21:35.765Z,14.80
2023-03-17T02:22:08.602Z,14.88
2023-03-17T02:22:42.581Z,14.57
2023-03-17T02:23:22.675Z,14.57
2023-03-17T02:23:56.400Z,13.98
2023-03-17T02:24:32.249Z,13.95
2023-03-17T02:25:05.358Z,15.27
2023-03-17T02:25:40.431Z,14.95
2023-03-17T02:26:12.869Z,16.13
2023-03-17T02:26:47.597Z,15.27
2023-03-17T02:27:21.729Z,16.30
2023-03-17T02:27:57.248Z,16.17
2023-03-17T02:28:31.082Z,15.23
2023-03-17T02:29:04.096Z,15.88
2023-03-17T02:29:38.137Z,14.55
2023-03-17T02:30:12.199Z,14.13
2023-03-17T02:30:45.077Z,15.00
2023-03-17T02:31:17.865Z,15.73
2023-03-17T02:31:50.808Z,15.70
2023-03-17T02:32:23.153Z,14.88
2023-03-17T02:32:55.648Z,14.48
2023-03-17T02:33:28.217Z,15.30
2023-03-17T02:34:00.816Z,14.98
2023-03-17T02:34:33.302Z,14.05
2023-03-17T02:35:07.386Z,14.27
2023-03-17T02:35:42.573Z,14.38
2023-03-17T02:36:15.397Z,15.38
2023-03-17T02:36:50.198Z,13.98
2023-03-17T02:37:22.824Z,13.73
2023-03-17T02:37:55.512Z,14.05
2023-03-17T02:38:27.972Z,14.15
2023-03-17T02:39:00.257Z,14.27
2023-03-17T02:39:35.730Z,14.02
2023-03-17T02:40:08.590Z,14.48
2023-03-17T02:40:41.451Z,13.85
2023-03-17T02:41:13.881Z,15.05
2023-03-17T02:41:46.416Z,14.52
2023-03-17T02:42:19.686Z,14.45
2023-03-17T02:42:52.149Z,14.18
2023-03-17T02:43:24.677Z,14.80
2023-03-17T02:44:00.522Z,15.32
2023-03-17T02:44:33.075Z,16.38
2023-03-17T02:45:06.448Z,14.98
2023-03-17T02:45:38.657Z,14.75
2023-03-17T02:46:11.098Z,14.30
2023-03-17T02:46:43.918Z,15.10
2023-03-17T02:47:17.546Z,15.68
2023-03-17T02:47:51.761Z,14.50
2023-03-17T02:48:24.237Z,15.23
2023-03-17T02:48:56.968Z,15.02
2023-03-17T02:49:30.278Z,15.07
2023-03-17T02:50:02.910Z,14.63
2023-03-17T02:50:35.540Z,14.02
2023-03-17T02:51:08.299Z,15.05
2023-03-17T02:51:40.659Z,14.82
2023-03-17T02:52:13.480Z,15.77
2023-03-17T02:52:46.184Z,15.73
2023-03-17T02:53:18.707Z,14.82
2023-03-17T02:53:51.316Z,15.85
2023-03-17T02:54:23.665Z,14.10
2023-03-17T02:54:55.861Z,15.02
2023-03-17T02:55:28.058Z,15.43
2023-03-17T02:56:00.350Z,14.90
2023-03-17T02:56:32.942Z,14.80
2023-03-17T02:57:05.695Z,13.88
2023-03-17T02:57:37.901Z,15.60
2023-03-17T02:58:10.200Z,14.93
2023-03-17T02:58:42.481Z,14.70
2023-03-17T02:59:14.767Z,15.00
2023-03-17T02:59:46.981Z,14.18
2023-03-17T03:00:19.722Z,14.68
2023-03-17T03:00:51.905Z,14.45
2023-03-17T03:01:24.601Z,14.43
2023-03-17T03:01:56.882Z,15.05
2023-03-17T03:02:29.113Z,14.45
2023-03-17T03:03:01.479Z,14.37
2023-03-17T03:03:34.162Z,15.15
2023-03-17T03:04:07.229Z,14.48
2023-03-17T03:04:39.501Z,14.88
2023-03-17T03:05:11.818Z,14.50
2023-03-17T03:05:44.066Z,14.32
2023-03-17T03:06:16.958Z,14.93
2023-03-17T03:06:49.239Z,14.07
2023-03-17T03:07:22.960Z,14.63
2023-03-17T03:07:55.350Z,14.77
2023-03-17T03:08:28.239Z,14.43
2023-03-17T03:09:00.546Z,14.55
2023-03-17T03:09:33.123Z,14.27
2023-03-17T03:10:06.137Z,14.43
2023-03-17T03:10:38.824Z,14.73
2023-03-17T03:11:11.204Z,15.65
2023-03-17T03:11:44.017Z,15.30
2023-03-17T03:12:16.529Z,14.52
2023-03-17T03:12:48.916Z,15.80
2023-03-17T03:13:22.087Z,15.18
2023-03-17T03:13:54.611Z,14.98
2023-03-17T03:14:27.444Z,14.98
2023-03-17T03:14:59.986Z,15.02
2023-03-17T03:15:32.824Z,14.82
2023-03-17T03:16:05.842Z,15.05
2023-03-17T03:16:38.757Z,14.23
2023-03-17T03:17:11.291Z,16.02
2023-03-17T03:17:43.830Z,14.93
2023-03-17T03:18:16.316Z,14.70
2023-03-17T03:18:48.860Z,14.75
2023-03-17T03:19:21.331Z,14.20
2023-03-17T03:19:53.892Z,14.57
2023-03-17T03:20:26.347Z,15.20
2023-03-17T03:20:59.085Z,15.88
2023-03-17T03:21:32.210Z,14.57
2023-03-17T03:22:04.568Z,14.80
2023-03-17T03:22:37.388Z,15.43
2023-03-17T03:23:10.219Z,14.38
2023-03-17T03:23:43.900Z,15.20
2023-03-17T03:24:16.407Z,14.27
2023-03-17T03:24:49.138Z,14.60
2023-03-17T03:25:21.645Z,14.60
2023-03-17T03:25:54.021Z,15.27
2023-03-17T03:26:26.517Z,14.07
2023-03-17T03:26:59.223Z,14.75
2023-03-17T03:27:32.815Z,14.70
2023-03-17T03:28:05.768Z,14.85
2023-03-17T03:28:38.152Z,15.55
2023-03-17T03:29:10.424Z,14.77
2023-03-17T03:29:42.908Z,13.82
2023-03-17T03:30:15.667Z,15.40
2023-03-17T03:30:48.176Z,14.30
2023-03-17T03:31:20.838Z,14.60
2023-03-17T03:31:53.691Z,14.90
2023-03-17T03:32:26.322Z,14.30
2023-03-17T03:32:58.826Z,14.00
2023-03-17T03:33:31.498Z,14.80
2023-03-17T03:34:04.752Z,14.75
2023-03-17T03:34:37.174Z,14.50
2023-03-17T03:35:09.621Z,14.00
2023-03-17T03:35:42.215Z,14.95
2023-03-17T03:36:15.227Z,14.27
2023-03-17T03:36:47.761Z,14.93
2023-03-17T03:37:20.302Z,14.98
2023-03-17T03:37:52.697Z,15.18
2023-03-17T03:38:25.476Z,14.68
2023-03-17T03:38:58.452Z,15.35
2023-03-17T03:39:31.335Z,15.27
2023-03-17T03:40:04.300Z,15.43
2023-03-17T03:40:37.169Z,13.95
2023-03-17T03:41:09.643Z,14.52
2023-03-17T03:41:42.169Z,13.90
2023-03-17T03:42:14.710Z,14.85
2023-03-17T03:42:47.170Z,15.35
2023-03-17T03:43:23.257Z,15.38
2023-03-17T03:43:56.364Z,13.70
2023-03-17T03:44:28.781Z,14.93
2023-03-17T03:45:01.692Z,14.27
2023-03-17T03:45:34.222Z,14.98
2023-03-17T03:46:06.961Z,14.48
2023-03-17T03:46:39.533Z,14.40
2023-03-17T03:47:12.867Z,13.80
2023-03-17T03:47:45.710Z,14.40
2023-03-17T03:48:18.148Z,15.05
2023-03-17T03:48:50.635Z,14.48
2023-03-17T03:49:24.171Z,14.60
2023-03-17T03:49:56.498Z,14.45
2023-03-17T03:50:29.242Z,14.35
2023-03-17T03:51:03.271Z,15.30
2023-03-17T03:51:35.980Z,14.52
2023-03-17T03:52:08.467Z,14.63
2023-03-17T03:52:41.182Z,14.20
2023-03-17T03:53:14.240Z,14.35
2023-03-17T03:53:48.538Z,13.95
2023-03-17T03:54:21.006Z,14.15
2023-03-17T03:54:53.378Z,14.40
2023-03-17T03:55:26.081Z,14.60
2023-03-17T03:55:58.411Z,13.77
2023-03-17T03:56:31.182Z,16.02
2023-03-17T03:57:03.726Z,14.68
2023-03-17T03:57:36.250Z,14.95
2023-03-17T03:58:09.433Z,13.80
2023-03-17T03:58:42.266Z,14.45
2023-03-17T03:59:15.494Z,15.30
2023-03-17T03:59:48.170Z,14.77
2023-03-17T04:00:20.687Z,15.45
2023-03-17T04:00:53.050Z,14.27
2023-03-17T04:01:25.366Z,15.02
2023-03-17T04:01:57.863Z,14.63
2023-03-17T04:02:31.170Z,14.07
2023-03-17T04:03:03.747Z,13.80
2023-03-17T04:03:37.510Z,14.27
2023-03-17T04:04:10.008Z,14.70
2023-03-17T04:04:43.049Z,14.75
2023-03-17T04:05:17.594Z,15.38
2023-03-17T04:05:50.108Z,13.98
2023-03-17T04:06:22.474Z,13.15
2023-03-17T04:06:55.076Z,13.30
2023-03-17T04:07:27.526Z,13.95
2023-03-17T04:08:00.100Z,14.55
2023-03-17T04:08:33.018Z,14.93
2023-03-17T04:09:05.372Z,14.45
2023-03-17T04:09:37.768Z,14.75
2023-03-17T04:10:14.617Z,13.95
2023-03-17T04:10:47.112Z,14.60
2023-03-17T04:11:19.867Z,15.48
2023-03-17T04:11:52.305Z,14.55
2023-03-17T04:12:24.826Z,13.88
2023-03-17T04:12:57.765Z,13.80
2023-03-17T04:13:30.305Z,13.88
2023-03-17T04:14:02.907Z,13.98
2023-03-17T04:14:35.384Z,13.57
2023-03-17T04:15:09.407Z,14.73
2023-03-17T04:15:41.991Z,14.95
2023-03-17T04:16:14.749Z,13.85
2023-03-17T04:16:47.060Z,13.82
2023-03-17T04:17:19.418Z,14.15
2023-03-17T04:17:52.378Z,14.50
2023-03-17T04:18:25.398Z,13.70
2023-03-17T04:18:58.137Z,14.23
2023-03-17T04:19:30.719Z,15.02
2023-03-17T04:20:03.285Z,14.43
2023-03-17T04:20:35.817Z,14.48
2023-03-17T04:21:08.652Z,14.50
2023-03-17T04:21:41.397Z,14.63
2023-03-17T04:22:13.960Z,13.60
2023-03-17T04:22:46.779Z,14.57
2023-03-17T04:23:19.212Z,13.63
2023-03-17T04:23:51.547Z,14.73
2023-03-17T04:24:24.346Z,13.63
2023-03-17T04:24:56.803Z,13.63
2023-03-17T04:25:29.273Z,13.75
2023-03-17T04:26:01.653Z,13.32
2023-03-17T04:26:33.932Z,13.68
2023-03-17T04:27:06.392Z,13.38
2023-03-17T04:27:38.722Z,14.60
2023-03-17T04:28:12.302Z,13.95
2023-03-17T04:28:45.214Z,13.48
2023-03-17T04:29:17.445Z,13.38
2023-03-17T04:29:49.802Z,13.15
2023-03-17T04:30:22.189Z,14.27
2023-03-17T04:30:54.455Z,13.75
2023-03-17T04:31:27.032Z,14.18
2023-03-17T04:32:00.309Z,13.15
2023-03-17T04:32:32.860Z,13.63
2023-03-17T04:33:05.477Z,14.00
2023-03-17T04:33:38.559Z,11.93
2023-03-17T04:34:13.816Z,14.02
2023-03-17T04:34:46.157Z,13.07
2023-03-17T04:35:19.993Z,13.50
2023-03-17T04:35:52.658Z,13.40
2023-03-17T04:36:25.373Z,13.00
2023-03-17T04:36:58.137Z,13.48
2023-03-17T04:37:32.298Z,13.35
2023-03-17T04:38:06.065Z,14.18
2023-03-17T04:38:38.413Z,13.57
2023-03-17T04:39:11.087Z,13.75
2023-03-17T04:39:43.545Z,13.82
2023-03-17T04:40:16.634Z,13.60
2023-03-17T04:40:50.141Z,13.13
2023-03-17T04:41:22.875Z,12.95
2023-03-17T04:41:55.383Z,13.93
2023-03-17T04:42:27.886Z,12.85
2023-03-17T04:43:03.281Z,13.23
2023-03-17T04:43:35.975Z,14.70
2023-03-17T04:44:08.511Z,13.15
2023-03-17T04:44:41.507Z,13.77
2023-03-17T04:45:15.728Z,13.77
2023-03-17T04:45:48.547Z,12.80
2023-03-17T04:46:20.928Z,12.85
2023-03-17T04:46:53.277Z,13.43
2023-03-17T04:47:26.420Z,12.65
2023-03-17T04:47:58.788Z,13.32
2023-03-17T04:48:31.684Z,12.55
2023-03-17T04:49:04.252Z,14.18
2023-03-17T04:49:36.737Z,12.18
2023-03-17T04:50:10.328Z,11.95
2023-03-17T04:50:43.122Z,12.02
2023-03-17T04:51:15.631Z,13.43
2023-03-17T04:51:48.122Z,13.45
2023-03-17T04:52:20.822Z,12.98
2023-03-17T04:52:53.297Z,12.50
2023-03-17T04:53:25.762Z,12.90
2023-03-17T04:53:58.266Z,11.70
2023-03-17T04:54:30.647Z,12.90
2023-03-17T04:55:03.435Z,12.77
2023-03-17T04:55:36.428Z,12.60
2023-03-17T04:56:08.795Z,12.15
2023-03-17T04:56:41.323Z,12.80
2023-03-17T04:57:13.999Z,12.23
2023-03-17T04:57:46.642Z,13.82
2023-03-17T04:58:29.927Z,12.13
2023-03-17T04:59:03.363Z,12.32
2023-03-17T04:59:35.804Z,12.80
2023-03-17T05:00:09.896Z,11.90
2023-03-17T05:00:42.162Z,12.98
2023-03-17T05:01:14.492Z,13.88
2023-03-17T05:01:47.309Z,13.00
2023-03-17T05:02:19.639Z,13.50
2023-03-17T05:02:51.918Z,13.00
2023-03-17T05:03:27.540Z,13.15
2023-03-17T05:04:00.230Z,13.07
2023-03-17T05:04:32.670Z,12.88
2023-03-17T05:05:05.780Z,14.02
2023-03-17T05:05:37.980Z,13.25
2023-03-17T05:06:10.319Z,13.40
2023-03-17T05:06:42.824Z,13.80
2023-03-17T05:07:15.310Z,14.80
2023-03-17T05:07:47.852Z,13.63
2023-03-17T05:08:20.438Z,13.43
2023-03-17T05:08:53.233Z,13.30
2023-03-17T05:09:26.968Z,13.15
2023-03-17T05:09:59.888Z,13.13
2023-03-17T05:10:32.908Z,13.48
2023-03-17T05:11:05.506Z,13.13
2023-03-17T05:11:38.325Z,11.82
2023-03-17T05:12:11.140Z,13.18
2023-03-17T05:12:43.505Z,13.57
2023-03-17T05:13:16.272Z,15.07
2023-03-17T05:13:48.652Z,13.65
2023-03-17T05:14:21.239Z,14.18
2023-03-17T05:14:53.603Z,12.82
2023-03-17T05:15:25.948Z,14.02
2023-03-17T05:15:59.823Z,14.07
2023-03-17T05:16:32.756Z,13.60
2023-03-17T05:17:05.290Z,13.48
2023-03-17T05:17:37.756Z,14.35
2023-03-17T05:18:10.144Z,14.02
2023-03-17T05:18:43.901Z,15.15
2023-03-17T05:19:16.692Z,14.55
2023-03-17T05:19:49.232Z,13.52
2023-03-17T05:20:21.418Z,13.25
2023-03-17T05:20:53.769Z,14.23
2023-03-17T05:21:26.420Z,14.55
2023-03-17T05:21:58.647Z,13.60
2023-03-17T05:22:31.183Z,14.07
2023-03-17T05:23:03.399Z,13.88
2023-03-17T05:23:35.694Z,13.88
2023-03-17T05:24:07.943Z,14.85
2023-03-17T05:24:40.153Z,13.38
2023-03-17T05:25:12.363Z,14.43
2023-03-17T05:25:44.803Z,14.07
2023-03-17T05:26:17.216Z,13.90
2023-03-17T05:26:49.468Z,14.82
2023-03-17T05:27:22.304Z,13.93
2023-03-17T05:27:54.718Z,13.73
2023-03-17T05:28:27.159Z,14.48
2023-03-17T05:28:59.630Z,13.90
2023-03-17T05:29:32.004Z,14.65
2023-03-17T05:30:04.777Z,14.63
2023-03-17T05:30:37.339Z,14.00
2023-03-17T05:31:11.067Z,14.43
2023-03-17T05:31:43.685Z,14.38
2023-03-17T05:32:16.031Z,14.55
2023-03-17T05:32:48.490Z,14.68
2023-03-17T05:33:21.935Z,14.30
2023-03-17T05:33:54.337Z,14.55
2023-03-17T05:34:27.159Z,14.23
2023-03-17T05:34:59.439Z,13.75
2023-03-17T05:35:31.683Z,14.82
2023-03-17T05:36:04.111Z,14.73
2023-03-17T05:36:36.964Z,15.00
2023-03-17T05:37:10.399Z,13.93
2023-03-17T05:37:42.798Z,14.75
2023-03-17T05:38:16.127Z,15.15
2023-03-17T05:38:48.380Z,14.40
2023-03-17T05:39:20.606Z,14.85
2023-03-17T05:39:54.110Z,13.90
2023-03-17T05:40:26.694Z,14.57
2023-03-17T05:40:59.112Z,14.23
2023-03-17T05:41:31.694Z,14.40
2023-03-17T05:42:04.079Z,13.65
2023-03-17T05:42:36.619Z,14.00
2023-03-17T05:43:09.194Z,14.13
2023-03-17T05:43:41.460Z,13.75
2023-03-17T05:44:13.834Z,13.85
2023-03-17T05:44:46.025Z,13.50
2023-03-17T05:45:18.762Z,13.45
2023-03-17T05:45:51.115Z,14.25
2023-03-17T05:46:23.429Z,15.07
2023-03-17T05:46:56.004Z,14.55
2023-03-17T05:47:28.357Z,14.77
2023-03-17T05:48:00.612Z,15.35
2023-03-17T05:48:33.265Z,14.52
2023-03-17T05:49:06.115Z,14.10
2023-03-17T05:49:38.318Z,14.27
2023-03-17T05:50:11.288Z,14.30
2023-03-17T05:50:43.686Z,13.80
2023-03-17T05:51:16.137Z,13.57
2023-03-17T05:51:48.378Z,13.82
2023-03-17T05:52:20.646Z,13.73
2023-03-17T05:52:54.039Z,13.40
2023-03-17T05:53:26.338Z,14.07
2023-03-17T05:53:58.579Z,14.15
2023-03-17T05:54:30.929Z,13.73
2023-03-17T05:55:03.528Z,13.57
2023-03-17T05:55:35.761Z,13.38
2023-03-17T05:56:08.099Z,13.88
2023-03-17T05:56:40.564Z,13.70
2023-03-17T05:57:13.044Z,13.32
2023-03-17T05:57:45.610Z,14.68
2023-03-17T05:58:18.515Z,15.23
2023-03-17T05:58:50.805Z,15.48
2023-03-17T05:59:23.218Z,15.45
2023-03-17T05:59:55.516Z,14.80
2023-03-17T06:00:29.423Z,14.15
2023-03-17T06:01:02.034Z,15.10
2023-03-17T06:01:34.245Z,14.50
2023-03-17T06:02:06.667Z,14.65
2023-03-17T06:02:39.384Z,14.95
2023-03-17T06:03:11.661Z,14.68
2023-03-17T06:03:43.972Z,14.40
2023-03-17T06:04:16.663Z,14.57
2023-03-17T06:04:48.881Z,14.80
2023-03-17T06:05:21.476Z,16.33
2023-03-17T06:05:53.764Z,15.95
2023-03-17T06:06:25.989Z,17.10
2023-03-17T06:06:58.955Z,15.32
2023-03-17T06:07:41.331Z,15.65
2023-03-17T06:08:21.446Z,14.65
2023-03-17T06:08:53.908Z,16.00
2023-03-17T06:09:27.303Z,15.80
2023-03-17T06:10:00.794Z,16.00
2023-03-17T06:10:33.703Z,16.50
2023-03-17T06:11:06.556Z,17.17
2023-03-17T06:11:39.302Z,16.52
2023-03-17T06:12:11.769Z,16.65
2023-03-17T06:12:44.316Z,18.63
2023-03-17T06:13:16.838Z,17.17
2023-03-17T06:13:49.246Z,16.25
2023-03-17T06:14:21.591Z,16.80
2023-03-17T06:14:54.052Z,16.48
2023-03-17T06:15:26.604Z,16.45
2023-03-17T06:15:58.973Z,16.50
2023-03-17T06:16:33.416Z,16.42
2023-03-17T06:17:06.551Z,15.35
2023-03-17T06:17:39.279Z,15.85
2023-03-17T06:18:11.669Z,14.90
2023-03-17T06:18:44.857Z,15.57
2023-03-17T06:19:17.518Z,14.45
2023-03-17T06:19:50.000Z,15.20
2023-03-17T06:20:22.448Z,15.32
2023-03-17T06:20:54.956Z,15.15
2023-03-17T06:21:27.532Z,16.02
2023-03-17T06:21:59.917Z,15.25
2023-03-17T06:22:32.896Z,15.10
2023-03-17T06:23:06.977Z,16.10
2023-03-17T06:23:39.206Z,14.90
2023-03-17T06:24:11.538Z,14.90
2023-03-17T06:24:44.087Z,14.23
2023-03-17T06:25:16.410Z,14.88
2023-03-17T06:25:48.662Z,14.82
2023-03-17T06:26:21.351Z,15.27
2023-03-17T06:26:53.707Z,15.07
2023-03-17T06:27:25.970Z,14.50
2023-03-17T06:27:58.334Z,14.90
2023-03-17T06:28:30.790Z,15.30
2023-03-17T06:29:09.232Z,15.13
2023-03-17T06:29:41.798Z,14.57
2023-03-17T06:30:14.162Z,14.50
2023-03-17T06:30:46.783Z,14.77
2023-03-17T06:31:19.111Z,14.40
2023-03-17T06:31:51.571Z,13.98
2023-03-17T06:32:23.849Z,15.93
2023-03-17T06:32:56.995Z,15.02
2023-03-17T06:33:29.412Z,14.95
2023-03-17T06:34:01.763Z,15.07
2023-03-17T06:34:34.139Z,14.85
2023-03-17T06:35:07.900Z,15.02
2023-03-17T06:35:40.802Z,14.60
2023-03-17T06:36:14.035Z,15.37
2023-03-17T06:36:47.001Z,13.95
2023-03-17T06:37:19.938Z,14.35
2023-03-17T06:37:52.526Z,15.20
2023-03-17T06:38:25.022Z,14.65
2023-03-17T06:38:58.120Z,15.23
2023-03-17T06:39:30.432Z,15.30
2023-03-17T06:40:05.803Z,13.90
2023-03-17T06:40:38.525Z,15.40
2023-03-17T06:41:11.312Z,15.70
2023-03-17T06:41:43.910Z,15.17
2023-03-17T06:42:16.271Z,15.13
2023-03-17T06:42:48.768Z,14.93
2023-03-17T06:43:22.369Z,14.20
2023-03-17T06:43:55.069Z,15.60
2023-03-17T06:44:28.119Z,14.50
2023-03-17T06:45:00.417Z,14.85
2023-03-17T06:45:35.966Z,14.52
2023-03-17T06:46:08.677Z,15.27
2023-03-17T06:46:41.667Z,15.05
2023-03-17T06:47:13.964Z,15.37
2023-03-17T06:47:47.502Z,14.63
2023-03-17T06:48:20.101Z,15.50
2023-03-17T06:48:52.880Z,13.90
2023-03-17T06:49:25.352Z,14.60
2023-03-17T06:49:57.838Z,14.95
2023-03-17T06:50:30.236Z,13.98
2023-03-17T06:51:02.967Z,14.32
2023-03-17T06:51:37.813Z,15.05
2023-03-17T06:52:11.051Z,14.10
2023-03-17T06:52:45.596Z,15.57
2023-03-17T06:53:19.280Z,14.23
2023-03-17T06:53:51.752Z,14.10
2023-03-17T06:54:25.619Z,14.55
2023-03-17T06:54:57.967Z,15.00
2023-03-17T06:55:30.937Z,14.20
2023-03-17T06:56:05.620Z,13.77
2023-03-17T06:56:38.000Z,13.85
2023-03-17T06:57:10.433Z,14.52
2023-03-17T06:57:43.206Z,14.30
2023-03-17T06:58:16.244Z,14.40
2023-03-17T06:58:48.942Z,13.70
2023-03-17T06:59:22.152Z,13.77
2023-03-17T06:59:54.695Z,13.95
2023-03-17T07:00:27.876Z,13.85
2023-03-17T07:01:00.560Z,13.10
2023-03-17T07:01:33.106Z,13.57
2023-03-17T07:02:05.749Z,13.82
2023-03-17T07:02:38.238Z,14.55
2023-03-17T07:03:11.640Z,13.82
2023-03-17T07:03:44.050Z,13.40
2023-03-17T07:04:16.756Z,11.75
2023-03-17T07:04:49.576Z,13.60
2023-03-17T07:05:22.293Z,13.77
2023-03-17T07:05:55.076Z,13.00
2023-03-17T07:06:28.915Z,13.95
2023-03-17T07:07:01.616Z,12.93
2023-03-17T07:07:35.827Z,13.00
2023-03-17T07:08:09.063Z,13.48
2023-03-17T07:08:41.938Z,13.30
2023-03-17T07:09:15.764Z,13.13